Time;durP1;ratioP1;P1;durP2;ratioP2;P2;SDS_P1;SDS_P2;PMS_P1;PMS_P2;Temp;Humidity;BMP_temperature;BMP_pressure;BME280_temperature;BME280_humidity;BME280_pressure;Samples;Min_cycle;Max_cycle;Signal;HPM_P1;HPM_P2
2023/02/23 00:01:40;;;;;;;15.32;3.20;;;7.60;99.90;;;;;;5068178;28;20398;-74
2023/02/23 00:04:07;;;;;;;18.30;3.33;;;7.50;99.90;;;;;;5068320;28;20484;-75
2023/02/23 00:06:37;;;;;;;22.45;3.55;;;7.50;99.90;;;;;;5068021;28;20497;-74
2023/02/23 00:09:10;;;;;;;14.55;3.72;;;7.50;99.90;;;;;;5050100;28;20025;-75
2023/02/23 00:11:36;;;;;;;13.00;3.95;;;7.40;99.90;;;;;;5068147;28;20078;-74
2023/02/23 00:14:02;;;;;;;;;;;7.50;99.90;;;;;;5068575;28;20441;-74
2023/02/23 00:16:28;;;;;;;18.00;3.30;;;7.50;99.90;;;;;;5067972;28;19991;-73
2023/02/23 00:18:55;;;;;;;;;;;7.50;99.90;;;;;;5050584;28;20025;-73
2023/02/23 00:21:23;;;;;;;17.13;3.83;;;7.40;99.90;;;;;;5050023;28;19916;-73
2023/02/23 00:23:53;;;;;;;22.05;4.57;;;7.30;99.90;;;;;;5050233;28;20024;-73
2023/02/23 00:26:20;;;;;;;15.60;3.38;;;7.30;99.90;;;;;;5049910;28;20035;-72
2023/02/23 00:28:47;;;;;;;16.52;3.72;;;7.30;99.90;;;;;;5049743;28;20043;-74
2023/02/23 00:31:13;;;;;;;21.33;4.07;;;7.30;99.90;;;;;;5050157;28;20132;-73
2023/02/23 00:33:40;;;;;;;;;;;7.20;99.90;;;;;;5050404;28;20119;-73
2023/02/23 00:36:09;;;;;;;13.33;3.47;;;7.10;99.90;;;;;;5049716;28;19920;-73
2023/02/23 00:38:35;;;;;;;13.00;3.85;;;7.00;99.90;;;;;;5049890;28;20086;-73
2023/02/23 00:41:10;;;;;;;20.10;4.68;;;7.00;99.90;;;;;;5067800;28;20028;-73
2023/02/23 00:43:38;;;;;;;22.52;3.85;;;6.90;99.90;;;;;;5049824;28;20252;-72
2023/02/23 00:46:05;;;;;;;14.40;4.07;;;6.90;99.90;;;;;;5050040;28;20029;-73
2023/02/23 00:48:32;;;;;;;19.42;4.22;;;6.90;99.90;;;;;;5049782;28;20035;-73
2023/02/23 00:50:59;;;;;;;15.80;4.18;;;6.90;99.90;;;;;;5067553;28;20568;-72
2023/02/23 00:53:26;;;;;;;17.77;4.45;;;6.90;99.90;;;;;;5049675;28;20020;-73
2023/02/23 00:55:53;;;;;;;12.38;3.92;;;6.80;99.90;;;;;;5068926;28;20060;-74
2023/02/23 00:58:18;;;;;;;13.18;2.92;;;6.80;99.90;;;;;;5053389;28;20496;-75
2023/02/23 01:00:44;;;;;;;;;;;6.80;99.90;;;;;;5053743;28;20072;-74
2023/02/23 01:03:10;;;;;;;23.30;4.45;;;6.70;99.90;;;;;;5071280;28;19914;-74
2023/02/23 01:05:35;;;;;;;;;;;6.70;99.90;;;;;;5071819;28;20037;-74
2023/02/23 01:08:01;;;;;;;21.88;4.82;;;6.70;99.90;;;;;;5071454;28;19908;-74
2023/02/23 01:10:26;;;;;;;;;;;6.70;99.90;;;;;;5053695;28;20461;-74
2023/02/23 01:12:52;;;;;;;28.42;4.97;;;6.80;99.90;;;;;;5053215;28;20554;-74
2023/02/23 01:15:19;;;;;;;;;;;6.80;99.90;;;;;;5053628;28;20029;-73
2023/02/23 01:17:46;;;;;;;21.03;4.77;;;6.80;99.90;;;;;;5071205;28;19915;-74
2023/02/23 01:20:17;;;;;;;12.68;3.85;;;6.80;99.90;;;;;;5071391;28;20093;-74
2023/02/23 01:22:49;;;;;;;20.23;4.35;;;6.80;99.90;;;;;;5071032;28;20039;-73
2023/02/23 01:25:16;;;;;;;14.68;4.28;;;6.90;99.90;;;;;;5052769;28;20139;-74
2023/02/23 01:27:42;;;;;;;16.80;4.28;;;6.90;99.90;;;;;;5070838;28;20104;-74
2023/02/23 01:30:10;;;;;;;13.82;4.05;;;7.00;99.90;;;;;;5052443;28;20067;-74
2023/02/23 01:32:36;;;;;;;20.90;4.82;;;7.00;99.90;;;;;;5053074;28;20070;-74
2023/02/23 01:35:11;;;;;;;;;;;7.00;99.90;;;;;;5052990;28;20024;-73
2023/02/23 01:37:39;;;;;;;18.58;4.57;;;7.00;99.90;;;;;;5052919;28;20002;-73
2023/02/23 01:40:12;;;;;;;19.00;5.00;;;6.90;99.90;;;;;;5052673;28;20142;-72
2023/02/23 01:42:38;;;;;;;17.75;4.10;;;7.00;99.90;;;;;;5052523;28;20450;-72
2023/02/23 01:45:28;;;;;;;17.67;4.38;;;7.00;99.90;;;;;;5052510;28;20119;-73
2023/02/23 01:48:17;;;;;;;21.63;5.60;;;7.10;99.90;;;;;;5070773;28;20074;-73
2023/02/23 01:51:00;;;;;;;15.05;4.20;;;7.00;99.90;;;;;;5052395;28;20484;-72
2023/02/23 01:53:32;;;;;;;24.52;4.78;;;7.00;99.90;;;;;;5052401;28;20033;-73
2023/02/23 01:56:04;;;;;;;16.00;4.78;;;7.10;99.90;;;;;;5070521;28;20023;-73
2023/02/23 01:58:32;;;;;;;17.35;4.53;;;7.00;99.90;;;;;;5070395;28;20035;-73
2023/02/23 02:01:01;;;;;;;14.93;4.28;;;7.00;99.90;;;;;;5052288;28;20038;-73
2023/02/23 02:03:27;;;;;;;13.27;4.07;;;6.90;99.90;;;;;;5070319;28;20059;-73
2023/02/23 02:05:53;;;;;;;;;;;6.80;99.90;;;;;;5052836;28;20060;-73
2023/02/23 02:08:22;;;;;;;19.38;4.00;;;6.80;99.90;;;;;;5069536;28;19914;-73
2023/02/23 02:10:54;;;;;;;16.85;3.90;;;6.90;99.90;;;;;;5070160;28;20024;-73
2023/02/23 02:13:24;;;;;;;10.85;3.60;;;6.80;99.90;;;;;;5052181;28;20028;-73
2023/02/23 02:16:15;;;;;;;13.90;4.05;;;6.80;99.90;;;;;;5051762;28;20082;-72
2023/02/23 02:18:53;;;;;;;15.73;4.60;;;6.80;99.90;;;;;;5052005;28;20024;-73
2023/02/23 02:21:40;;;;;;;14.60;3.88;;;6.80;99.90;;;;;;5051856;28;20040;-72
2023/02/23 02:24:11;;;;;;;14.25;3.97;;;6.80;99.90;;;;;;5069725;28;20028;-74
2023/02/23 02:26:59;;;;;;;15.35;4.30;;;6.70;99.90;;;;;;5051736;28;20024;-73
2023/02/23 02:29:42;;;;;;;11.27;4.07;;;6.70;99.90;;;;;;5069707;28;20028;-73
2023/02/23 02:32:26;;;;;;;13.68;4.05;;;6.60;99.90;;;;;;5069737;28;20876;-73
2023/02/23 02:35:09;;;;;;;19.40;4.53;;;6.60;99.90;;;;;;5069496;28;20024;-72
2023/02/23 02:37:46;;;;;;;14.80;3.72;;;6.50;99.90;;;;;;5069462;28;20062;-73
2023/02/23 02:40:31;;;;;;;22.75;3.55;;;6.50;99.90;;;;;;5069496;28;20439;-72
2023/02/23 02:43:11;;;;;;;10.30;3.20;;;6.50;99.90;;;;;;5069338;28;20040;-73
2023/02/23 02:45:49;;;;;;;14.20;5.72;;;6.50;99.90;;;;;;5069288;28;20028;-73
2023/02/23 02:48:24;;;;;;;16.40;4.25;;;6.40;99.90;;;;;;5051533;28;20020;-73
2023/02/23 02:51:20;;;;;;;18.48;4.15;;;6.40;99.90;;;;;;5069354;28;20025;-73
2023/02/23 02:54:23;;;;;;;16.80;4.78;;;6.40;99.90;;;;;;5051373;28;20037;-74
2023/02/23 02:56:56;;;;;;;19.20;5.07;;;6.40;99.90;;;;;;5051158;28;20123;-73
2023/02/23 04:19:12;;;;;;;13.48;3.10;;;6.20;99.90;;;;;;5068638;28;20060;-73
2023/02/23 04:21:38;;;;;;;;;;;6.40;99.20;;;;;;5050272;28;20067;-73
2023/02/23 04:24:04;;;;;;;14.90;3.08;;;6.50;97.90;;;;;;5067880;28;19904;-73
2023/02/23 04:26:29;;;;;;;;;;;6.50;97.70;;;;;;5068336;28;20021;-73
2023/02/23 04:28:55;;;;;;;9.80;2.65;;;6.40;98.30;;;;;;5049914;28;19909;-73
2023/02/23 04:31:23;;;;;;;14.38;3.08;;;6.30;98.20;;;;;;5069912;28;20020;-74
2023/02/23 04:33:49;;;;;;;14.60;3.90;;;6.40;97.70;;;;;;5072103;28;20024;-74
2023/02/23 04:36:15;;;;;;;16.30;3.40;;;6.30;98.30;;;;;;5053615;28;20557;-72
2023/02/23 04:38:40;;;;;;;;;;;6.40;98.10;;;;;;5071901;28;20032;-73
2023/02/23 04:41:06;;;;;;;15.82;3.40;;;6.40;97.90;;;;;;5053672;28;19916;-73
2023/02/23 04:43:31;;;;;;;;;;;6.50;97.00;;;;;;5071958;28;20036;-73
2023/02/23 04:45:57;;;;;;;17.35;3.45;;;6.50;96.80;;;;;;5053339;28;19909;-73
2023/02/23 04:48:24;;;;;;;;;;;6.30;97.30;;;;;;5071788;28;20117;-73
2023/02/23 04:50:54;;;;;;;11.40;3.47;;;6.40;97.10;;;;;;5071662;28;20430;-73
2023/02/23 04:53:20;;;;;;;12.65;3.15;;;6.40;97.00;;;;;;5053605;28;20029;-73
2023/02/23 04:55:45;;;;;;;;;;;6.40;95.90;;;;;;5072203;28;20017;-74
2023/02/23 04:58:14;;;;;;;17.60;3.50;;;6.40;96.40;;;;;;5053390;28;20365;-73
2023/02/23 05:00:40;;;;;;;11.90;3.72;;;6.50;95.00;;;;;;5053262;28;20044;-73
2023/02/23 05:03:06;;;;;;;16.73;3.65;;;6.40;95.80;;;;;;5071160;28;20496;-73
2023/02/23 05:05:31;;;;;;;;;;;6.40;95.00;;;;;;5053906;28;20064;-74
2023/02/23 05:07:57;;;;;;;12.77;4.43;;;6.40;94.00;;;;;;5053425;28;20330;-73
2023/02/23 05:10:23;;;;;;;;;;;6.50;93.50;;;;;;5053505;28;20045;-72
2023/02/23 05:12:48;;;;;;;16.67;4.47;;;6.50;93.20;;;;;;5071296;28;19915;-72
2023/02/23 05:15:14;;;;;;;13.23;3.97;;;6.50;93.10;;;;;;5053396;28;20580;-74
2023/02/23 05:17:40;;;;;;;;;;;6.50;92.70;;;;;;5071274;28;20032;-74
2023/02/23 05:20:08;;;;;;;14.98;3.55;;;6.40;94.00;;;;;;5071000;28;20424;-73
2023/02/23 05:22:34;;;;;;;16.48;3.80;;;6.40;93.50;;;;;;5070939;28;20033;-74
2023/02/23 05:25:00;;;;;;;;;;;6.40;93.70;;;;;;5053422;28;20029;-74
2023/02/23 05:27:26;;;;;;;12.75;3.30;;;6.40;93.30;;;;;;5070988;28;19908;-74
2023/02/23 05:29:51;;;;;;;;;;;6.50;92.50;;;;;;5071560;28;20515;-74
2023/02/23 05:32:17;;;;;;;9.45;3.53;;;6.40;93.40;;;;;;5070928;28;19915;-74
2023/02/23 05:34:42;;;;;;;;;;;6.40;93.10;;;;;;5071334;28;20039;-73
2023/02/23 05:37:08;;;;;;;18.67;4.68;;;6.40;92.80;;;;;;5052862;28;19969;-73
2023/02/23 05:39:33;;;;;;;;;;;6.40;93.10;;;;;;5071224;28;20028;-73
2023/02/23 05:41:59;;;;;;;18.33;3.83;;;6.40;93.10;;;;;;5069522;28;20756;-74
2023/02/23 05:44:25;;;;;;;;;;;6.40;93.70;;;;;;5052428;28;20404;-73
2023/02/23 05:46:50;;;;;;;14.57;4.28;;;6.30;94.30;;;;;;5070615;28;19912;-74
2023/02/23 05:49:16;;;;;;;;;;;6.30;94.40;;;;;;5070685;28;20048;-74
2023/02/23 05:51:42;;;;;;;15.88;3.72;;;6.40;93.10;;;;;;5070499;28;19908;-74
2023/02/23 05:54:08;;;;;;;;;;;6.40;92.80;;;;;;5052797;28;20162;-73
2023/02/23 05:56:33;;;;;;;11.30;3.78;;;6.40;92.70;;;;;;5069928;28;19909;-73
2023/02/23 05:59:01;;;;;;;;;;;6.30;93.50;;;;;;5070887;28;20074;-73
2023/02/23 06:01:27;;;;;;;;;;;6.40;92.80;;;;;;5070737;28;19971;-73
2023/02/23 06:03:52;;;;;;;15.73;4.10;;;6.40;93.30;;;;;;5052305;28;19943;-74
2023/02/23 06:06:19;;;;;;;;;;;6.40;92.70;;;;;;5070492;28;20579;-71
2023/02/23 06:08:44;;;;;;;12.48;3.97;;;6.60;90.50;;;;;;5069842;28;19923;-73
2023/02/23 06:11:10;;;;;;;;;;;6.60;91.00;;;;;;5052529;28;20389;-74
2023/02/23 06:13:36;;;;;;;12.50;3.95;;;6.70;89.60;;;;;;5052177;28;20292;-74
2023/02/23 06:16:02;;;;;;;;;;;6.60;90.20;;;;;;5052170;28;20508;-72
2023/02/23 06:18:28;;;;;;;14.00;3.92;;;6.70;89.30;;;;;;5069537;28;19915;-73
2023/02/23 06:20:54;;;;;;;18.65;4.03;;;6.80;88.30;;;;;;5051715;28;20036;-74
2023/02/23 06:23:20;;;;;;;11.13;3.75;;;6.70;89.90;;;;;;5069753;28;20023;-74
2023/02/23 06:25:46;;;;;;;;;;;6.80;88.40;;;;;;5052055;28;20456;-74
2023/02/23 06:28:12;;;;;;;12.75;4.28;;;6.90;88.20;;;;;;5069724;28;19908;-74
2023/02/23 06:30:37;;;;;;;;;;;6.80;88.00;;;;;;5069619;28;20032;-74
2023/02/23 06:33:04;;;;;;;14.35;4.70;;;6.90;86.40;;;;;;5051826;28;19909;-74
2023/02/23 06:35:31;;;;;;;11.70;3.88;;;6.90;86.00;;;;;;5069164;28;20133;-74
2023/02/23 06:37:57;;;;;;;15.43;4.65;;;7.10;83.60;;;;;;5069618;28;20073;-74
2023/02/23 06:40:23;;;;;;;12.90;4.22;;;7.10;82.70;;;;;;5069148;28;20125;-72
2023/02/23 06:42:49;;;;;;;;;;;7.10;84.00;;;;;;5069762;28;20496;-74
2023/02/23 06:45:15;;;;;;;24.92;9.63;;;7.10;83.60;;;;;;5051656;28;19904;-74
2023/02/23 06:47:40;;;;;;;;;;;7.20;81.90;;;;;;5051794;28;20025;-74
2023/02/23 06:50:07;;;;;;;10.43;3.85;;;7.10;82.70;;;;;;5069166;28;19917;-74
2023/02/23 06:52:33;;;;;;;13.60;4.90;;;7.20;82.10;;;;;;5069388;28;20044;-74
2023/02/23 06:54:59;;;;;;;;;;;7.20;81.70;;;;;;5069012;28;20409;-73
2023/02/23 06:57:24;;;;;;;13.10;3.58;;;7.20;81.40;;;;;;5069165;28;19904;-73
2023/02/23 06:59:50;;;;;;;;;;;7.30;80.40;;;;;;5069470;28;20138;-72
2023/02/23 07:02:16;;;;;;;12.50;3.75;;;7.40;78.60;;;;;;5050975;28;19923;-74
2023/02/23 07:04:42;;;;;;;17.95;5.85;;;7.30;78.70;;;;;;5050690;28;20025;-73
2023/02/23 07:07:08;;;;;;;;;;;7.30;79.00;;;;;;5051414;28;20033;-74
2023/02/23 07:09:33;;;;;;;9.80;3.80;;;7.30;78.10;;;;;;5050950;28;19908;-73
2023/02/23 07:12:00;;;;;;;18.85;5.22;;;7.30;78.00;;;;;;5068918;28;20044;-73
2023/02/23 07:14:26;;;;;;;14.70;3.80;;;7.30;79.30;;;;;;5068778;28;20496;-73
2023/02/23 07:16:51;;;;;;;;;;;7.30;78.30;;;;;;5069201;28;20799;-73
2023/02/23 07:19:17;;;;;;;12.23;4.13;;;7.30;77.70;;;;;;5050882;28;19914;-73
2023/02/23 07:21:43;;;;;;;14.02;4.57;;;7.30;77.00;;;;;;5068794;28;20059;-74
2023/02/23 07:24:08;;;;;;;;;;;7.40;76.70;;;;;;5069132;28;20033;-74
2023/02/23 07:26:34;;;;;;;10.85;3.20;;;7.40;77.50;;;;;;5068982;28;19919;-74
2023/02/23 07:29:01;;;;;;;13.48;4.10;;;7.40;77.20;;;;;;5068598;28;20028;-73
2023/02/23 07:31:27;;;;;;;27.88;6.05;;;7.60;75.20;;;;;;5068647;28;20165;-73
2023/02/23 07:33:56;;;;;;;;;;;7.50;75.80;;;;;;5069195;28;20449;-72
2023/02/23 07:36:22;;;;;;;14.60;6.65;;;7.60;75.40;;;;;;5068313;28;19920;-73
2023/02/23 07:38:48;;;;;;;14.40;7.10;;;7.60;74.90;;;;;;5068596;28;20030;-73
2023/02/23 07:41:14;;;;;;;;;;;7.60;75.90;;;;;;5051016;28;20036;-73
2023/02/23 07:43:40;;;;;;;17.88;6.57;;;7.50;75.90;;;;;;5068557;28;19955;-74
2023/02/23 07:46:05;;;;;;;;;;;7.60;76.40;;;;;;5050961;28;20033;-73
2023/02/23 07:48:32;;;;;;;11.98;5.45;;;7.60;75.50;;;;;;5068426;28;19916;-74
2023/02/23 07:50:57;;;;;;;15.95;5.68;;;7.70;75.00;;;;;;5068549;28;20028;-73
2023/02/23 07:53:24;;;;;;;;;;;7.70;75.40;;;;;;5068823;28;20055;-74
2023/02/23 07:55:57;;;;;;;14.07;6.18;;;7.80;78.30;;;;;;5050362;28;19908;-74
2023/02/23 07:58:23;;;;;;;19.10;9.07;;;7.90;75.90;;;;;;5068256;28;20028;-73
2023/02/23 08:00:48;;;;;;;;;;;8.10;75.60;;;;;;5068762;28;20021;-74
2023/02/23 08:03:14;;;;;;;16.65;8.32;;;8.20;75.40;;;;;;5050300;28;20025;-74
2023/02/23 08:05:39;;;;;;;;;;;8.50;71.20;;;;;;5049925;28;20089;-74
2023/02/23 08:08:05;;;;;;;18.65;6.75;;;8.50;72.50;;;;;;5050447;28;19908;-74
2023/02/23 08:10:31;;;;;;;;;;;8.50;74.00;;;;;;5068488;28;20035;-73
2023/02/23 08:12:57;;;;;;;40.25;16.27;;;8.50;72.10;;;;;;5068325;28;20402;-74
2023/02/23 08:15:24;;;;;;;;;;;8.50;71.40;;;;;;5050575;28;20028;-73
2023/02/23 08:17:50;;;;;;;28.17;11.50;;;8.60;70.10;;;;;;5068350;28;20320;-73
2023/02/23 08:20:15;;;;;;;;;;;8.60;70.00;;;;;;5068652;28;20044;-73
2023/02/23 08:22:42;;;;;;;17.63;7.10;;;8.60;68.90;;;;;;5068137;28;20385;-73
2023/02/23 08:25:08;;;;;;;13.20;5.28;;;8.70;69.50;;;;;;5049850;28;20077;-72
2023/02/23 08:27:35;;;;;;;14.07;6.53;;;8.60;70.30;;;;;;5067425;28;20032;-74
2023/02/23 08:30:02;;;;;;;16.85;6.13;;;8.50;70.40;;;;;;5067989;28;20033;-74
2023/02/23 08:32:33;;;;;;;16.80;6.25;;;8.70;71.00;;;;;;5049934;28;20059;-74
2023/02/23 08:35:01;;;;;;;14.85;5.80;;;8.80;72.30;;;;;;5067889;28;20039;-74
2023/02/23 08:37:28;;;;;;;16.60;7.00;;;8.90;69.50;;;;;;5067689;28;20087;-74
2023/02/23 08:39:54;;;;;;;12.88;5.38;;;9.00;68.90;;;;;;5067927;28;20039;-74
2023/02/23 08:42:20;;;;;;;14.77;5.05;;;9.00;69.70;;;;;;5067816;28;20037;-74
2023/02/23 08:44:48;;;;;;;;;;;9.10;69.20;;;;;;5050155;28;20036;-74
2023/02/23 08:47:15;;;;;;;16.00;5.53;;;9.10;69.20;;;;;;5049834;28;19976;-74
2023/02/23 08:49:41;;;;;;;17.98;5.28;;;9.10;68.70;;;;;;5049861;28;20111;-74
2023/02/23 08:52:07;;;;;;;;;;;9.10;68.20;;;;;;5068399;28;20112;-74
2023/02/23 08:54:32;;;;;;;19.75;7.60;;;9.20;68.40;;;;;;5067762;28;20031;-73
2023/02/23 08:56:58;;;;;;;;;;;9.30;68.00;;;;;;5068269;28;20101;-74
2023/02/23 08:59:24;;;;;;;21.02;5.97;;;9.30;68.60;;;;;;5067711;28;19985;-74
2023/02/23 09:01:50;;;;;;;14.52;5.03;;;9.40;68.30;;;;;;5067769;28;20059;-75
2023/02/23 09:04:17;;;;;;;;;;;9.60;66.00;;;;;;5049796;28;20819;-73
2023/02/23 09:06:43;;;;;;;18.40;5.38;;;9.50;66.30;;;;;;5049787;28;19940;-74
2023/02/23 09:09:09;;;;;;;17.92;5.07;;;9.50;67.20;;;;;;5067866;28;20070;-73
2023/02/23 09:11:35;;;;;;;;;;;9.50;66.90;;;;;;5049962;28;20021;-74
2023/02/23 09:14:00;;;;;;;14.00;5.03;;;9.60;66.50;;;;;;5067743;28;19991;-74
2023/02/23 09:16:26;;;;;;;;;;;9.70;66.60;;;;;;5068220;28;20452;-75
2023/02/23 09:18:51;;;;;;;20.05;6.15;;;9.70;66.80;;;;;;5053198;28;20021;-74
2023/02/23 09:21:19;;;;;;;;;;;9.70;67.00;;;;;;5053225;28;20539;-74
2023/02/23 09:23:47;;;;;;;16.02;4.53;;;9.90;66.70;;;;;;5071093;28;19909;-73
2023/02/23 09:26:13;;;;;;;18.98;7.03;;;10.00;66.10;;;;;;5052955;28;20374;-75
2023/02/23 09:28:39;;;;;;;17.13;4.57;;;10.10;65.60;;;;;;5070825;28;20036;-74
2023/02/23 09:31:12;;;;;;;18.67;6.38;;;10.30;65.10;;;;;;5052963;28;20404;-72
2023/02/23 09:33:39;;;;;;;19.38;5.95;;;10.30;65.20;;;;;;5070540;28;20020;-73
2023/02/23 09:36:17;;;;;;;15.45;5.10;;;10.10;65.80;;;;;;5052592;28;20052;-74
2023/02/23 09:38:44;;;;;;;17.70;4.28;;;10.00;65.80;;;;;;5070725;28;20012;-75
2023/02/23 09:41:25;;;;;;;11.93;5.05;;;10.10;66.00;;;;;;5052638;28;20137;-75
2023/02/23 09:43:53;;;;;;;47.67;18.08;;;10.30;65.30;;;;;;5052935;28;20047;-74
2023/02/23 09:46:46;;;;;;;21.75;6.72;;;10.30;64.40;;;;;;5070589;28;20029;-73
2023/02/23 09:49:19;;;;;;;18.88;6.00;;;10.30;64.90;;;;;;5052547;28;20024;-73
2023/02/23 09:51:53;;;;;;;22.50;6.00;;;10.20;65.30;;;;;;5070668;28;20029;-75
2023/02/23 09:54:23;;;;;;;17.92;7.07;;;10.10;65.30;;;;;;5070468;28;20016;-74
2023/02/23 09:56:50;;;;;;;18.05;5.40;;;10.10;65.70;;;;;;5070572;28;20107;-74
2023/02/23 09:59:19;;;;;;;23.45;6.97;;;10.30;65.30;;;;;;5070730;28;20016;-75
2023/02/23 10:01:47;;;;;;;18.77;6.75;;;10.60;65.30;;;;;;5070351;28;20067;-75
2023/02/23 10:04:28;;;;;;;21.85;7.88;;;10.60;64.90;;;;;;5070279;28;20035;-75
2023/02/23 10:07:18;;;;;;;25.90;7.47;;;10.70;65.50;;;;;;5070280;28;20032;-74
2023/02/23 10:09:53;;;;;;;19.88;5.68;;;10.90;64.10;;;;;;5052114;28;20489;-75
2023/02/23 10:12:34;;;;;;;18.98;5.63;;;11.10;63.00;;;;;;5052257;28;20473;-74
2023/02/23 10:15:23;;;;;;;15.88;5.20;;;10.90;63.00;;;;;;5070132;28;20868;-75
2023/02/23 10:18:10;;;;;;;19.65;5.80;;;10.80;64.60;;;;;;5051994;28;20031;-74
2023/02/23 10:20:39;;;;;;;;;;;11.00;63.20;;;;;;5070178;28;20524;-75
2023/02/23 10:23:12;;;;;;;16.30;5.03;;;10.90;63.90;;;;;;5070125;28;20433;-74
2023/02/23 10:25:43;;;;;;;23.02;7.57;;;10.90;64.00;;;;;;5069459;28;20799;-74
2023/02/23 10:28:15;;;;;;;22.35;5.63;;;10.90;64.80;;;;;;5069203;28;20067;-74
2023/02/23 10:30:41;;;;;;;21.77;5.90;;;11.10;65.20;;;;;;5069717;28;20034;-75
2023/02/23 10:33:15;;;;;;;;;;;11.30;65.10;;;;;;5052284;28;20085;-74
2023/02/23 10:35:42;;;;;;;26.17;7.60;;;11.50;63.00;;;;;;5069857;28;20018;-74
2023/02/23 10:38:13;;;;;;;17.65;5.25;;;11.60;62.80;;;;;;5069552;28;20074;-74
2023/02/23 10:40:42;;;;;;;16.30;8.32;;;11.60;63.00;;;;;;5069556;28;20422;-74
2023/02/23 10:43:11;;;;;;;19.55;6.82;;;11.60;62.30;;;;;;5051873;28;20024;-74
2023/02/23 10:45:48;;;;;;;20.80;5.85;;;11.40;62.50;;;;;;5069131;28;20123;-74
2023/02/23 10:48:16;;;;;;;;;;;11.30;63.80;;;;;;5069937;28;20512;-74
2023/02/23 10:50:44;;;;;;;18.92;5.20;;;11.20;64.70;;;;;;5069024;28;19916;-74
2023/02/23 10:53:26;;;;;;;17.83;5.07;;;11.20;64.50;;;;;;5069388;28;20032;-74
2023/02/23 10:56:03;;;;;;;17.08;4.93;;;11.30;64.10;;;;;;5051027;28;20035;-74
2023/02/23 10:58:30;;;;;;;14.40;5.25;;;11.30;64.10;;;;;;5069179;28;20099;-74
2023/02/23 11:01:01;;;;;;;25.05;5.88;;;11.40;63.30;;;;;;5068891;28;20032;-75
2023/02/23 11:03:49;;;;;;;17.38;5.35;;;11.40;63.20;;;;;;5069128;28;20025;-74
2023/02/23 11:06:30;;;;;;;24.95;4.40;;;11.40;63.60;;;;;;5069153;28;20016;-74
2023/02/23 11:08:56;;;;;;;17.95;5.57;;;11.60;63.60;;;;;;5069042;28;20392;-75
2023/02/23 11:11:24;;;;;;;;;;;11.50;63.20;;;;;;5069518;28;20488;-73
2023/02/23 11:13:51;;;;;;;16.60;4.95;;;11.60;64.00;;;;;;5069013;28;19904;-74
2023/02/23 11:16:29;;;;;;;15.80;4.38;;;11.60;63.60;;;;;;5068655;28;20033;-74
2023/02/23 11:19:00;;;;;;;16.33;4.28;;;11.80;63.30;;;;;;5050842;28;20024;-75
2023/02/23 11:21:28;;;;;;;32.88;6.10;;;11.90;63.30;;;;;;5050711;28;20082;-74
2023/02/23 11:23:57;;;;;;;20.33;5.95;;;12.00;61.40;;;;;;5068781;28;20020;-74
2023/02/23 11:26:43;;;;;;;15.77;4.35;;;12.00;61.40;;;;;;5050693;28;20040;-74
2023/02/23 11:29:12;;;;;;;16.90;4.95;;;12.00;62.00;;;;;;5050560;28;20024;-74
2023/02/23 11:31:39;;;;;;;30.80;7.30;;;12.00;62.20;;;;;;5050750;28;20396;-74
2023/02/23 11:34:06;;;;;;;19.75;5.38;;;12.00;61.10;;;;;;5068508;28;20025;-74
2023/02/23 11:36:36;;;;;;;15.70;4.75;;;11.90;62.00;;;;;;5068438;28;20079;-74
2023/02/23 11:39:05;;;;;;;20.35;5.88;;;12.00;62.30;;;;;;5050433;28;20120;-75
2023/02/23 11:41:33;;;;;;;20.27;5.55;;;12.00;61.30;;;;;;5067545;28;20086;-74
2023/02/23 11:44:01;;;;;;;16.73;5.25;;;12.00;62.20;;;;;;5050682;28;20063;-75
2023/02/23 11:46:30;;;;;;;17.90;4.65;;;12.00;62.40;;;;;;5050335;28;20036;-75
2023/02/23 11:48:58;;;;;;;14.70;5.03;;;12.10;61.80;;;;;;5068505;28;20027;-75
2023/02/23 11:51:36;;;;;;;21.42;6.38;;;12.10;62.30;;;;;;5050480;28;20431;-74
2023/02/23 11:54:03;;;;;;;15.20;4.20;;;12.10;63.00;;;;;;5050314;28;20032;-74
2023/02/23 11:56:31;;;;;;;14.02;4.57;;;12.40;63.70;;;;;;5050224;28;20067;-74
2023/02/23 11:59:07;;;;;;;14.52;5.25;;;12.60;63.20;;;;;;5068363;28;20107;-74
2023/02/23 12:01:44;;;;;;;18.63;5.15;;;12.80;62.10;;;;;;5068385;28;20579;-75
2023/02/23 12:04:29;;;;;;;18.88;6.07;;;12.90;61.80;;;;;;5068200;28;20027;-75
2023/02/23 12:07:44;;;;;;;26.30;8.73;;;13.20;62.30;;;;;;5068243;28;20021;-75
2023/02/23 12:10:23;;;;;;;15.15;6.45;;;13.40;61.20;;;;;;5068381;28;20070;-74
2023/02/23 12:13:23;;;;;;;15.90;5.90;;;13.40;60.20;;;;;;5050250;28;20059;-74
2023/02/23 12:15:54;;;;;;;22.15;7.38;;;13.50;60.70;;;;;;5050144;28;20021;-75
2023/02/23 12:18:35;;;;;;;23.05;6.35;;;13.50;58.80;;;;;;5050252;28;20032;-74
2023/02/23 12:21:40;;;;;;;21.63;6.22;;;13.20;59.10;;;;;;5068213;28;20537;-74
2023/02/23 12:24:25;;;;;;;15.18;5.65;;;13.10;60.00;;;;;;5068026;28;20016;-74
2023/02/23 12:27:05;;;;;;;13.63;5.70;;;13.20;59.10;;;;;;5067973;28;20025;-74
2023/02/23 12:29:49;;;;;;;18.83;6.65;;;13.00;59.30;;;;;;5049966;28;20039;-74
2023/02/23 12:32:25;;;;;;;16.65;6.38;;;12.80;61.00;;;;;;5067977;28;20078;-74
2023/02/23 12:34:57;;;;;;;16.90;6.32;;;12.70;61.40;;;;;;5067940;28;20028;-74
2023/02/23 12:37:27;;;;;;;19.75;6.00;;;12.70;61.20;;;;;;5067792;28;20496;-74
2023/02/23 12:40:12;;;;;;;17.50;6.38;;;12.60;61.40;;;;;;5067984;28;20463;-74
2023/02/23 12:43:11;;;;;;;18.58;8.38;;;12.50;61.80;;;;;;5067720;28;20173;-74
2023/02/23 12:45:51;;;;;;;20.63;8.13;;;12.40;62.00;;;;;;5049845;28;20024;-74
2023/02/23 12:48:54;;;;;;;18.83;6.22;;;12.30;63.10;;;;;;5049822;28;20064;-74
2023/02/23 12:51:27;;;;;;;14.65;5.53;;;12.50;63.70;;;;;;5067932;28;20132;-74
2023/02/23 12:53:53;;;;;;;20.95;8.45;;;12.70;63.90;;;;;;5071622;28;20040;-74
2023/02/23 12:56:27;;;;;;;;;;;12.90;63.50;;;;;;5071890;28;20054;-74
2023/02/23 12:59:13;;;;;;;11.93;5.10;;;13.10;63.20;;;;;;5053753;28;19911;-74
2023/02/23 13:01:59;;;;;;;22.73;5.43;;;13.20;62.60;;;;;;5071566;28;20035;-74
2023/02/23 13:04:38;;;;;;;12.70;5.07;;;13.30;62.00;;;;;;5071434;28;20070;-74
2023/02/23 13:07:33;;;;;;;16.15;5.80;;;13.50;62.50;;;;;;5071460;28;20044;-74
2023/02/23 13:10:17;;;;;;;21.73;6.80;;;13.50;62.00;;;;;;5053609;28;20117;-74
2023/02/23 13:12:58;;;;;;;14.90;6.32;;;13.50;61.70;;;;;;5053197;28;20567;-73
2023/02/23 13:15:43;;;;;;;14.57;5.72;;;13.50;62.50;;;;;;5071123;28;20024;-74
2023/02/23 13:18:33;;;;;;;18.73;8.98;;;13.50;62.70;;;;;;5071280;28;20040;-75
2023/02/23 13:21:22;;;;;;;19.48;10.10;;;13.40;61.00;;;;;;5053260;28;20138;-73
2023/02/23 13:24:09;;;;;;;19.90;7.57;;;13.40;61.70;;;;;;5053015;28;20070;-74
2023/02/23 13:26:50;;;;;;;24.73;11.35;;;13.40;62.70;;;;;;5070929;28;20020;-74
2023/02/23 13:29:53;;;;;;;15.70;5.78;;;13.50;62.20;;;;;;5070976;28;20051;-74
2023/02/23 13:32:31;;;;;;;19.80;7.43;;;13.50;62.40;;;;;;4988973;28;20033;-75
2023/02/23 13:35:02;;;;;;;17.50;5.88;;;13.40;61.10;;;;;;5046032;28;20192;-74
2023/02/23 13:38:05;;;;;;;15.63;6.25;;;13.20;61.00;;;;;;5070786;28;20052;-74
2023/02/23 13:40:54;;;;;;;17.05;7.15;;;13.00;63.10;;;;;;5043499;28;20040;-74
2023/02/23 13:43:23;;;;;;;16.77;5.80;;;13.00;63.30;;;;;;5070738;28;20358;-74
2023/02/23 13:46:03;;;;;;;21.33;6.55;;;13.00;63.80;;;;;;5052925;28;20097;-74
2023/02/23 13:48:59;;;;;;;21.85;7.25;;;13.00;63.70;;;;;;5052527;28;20033;-74
2023/02/23 13:51:31;;;;;;;17.17;5.97;;;13.00;64.50;;;;;;5070691;28;20025;-73
2023/02/23 13:53:58;;;;;;;13.82;6.78;;;13.00;64.10;;;;;;5052506;28;20042;-74
2023/02/23 13:56:28;;;;;;;18.73;6.90;;;12.90;64.10;;;;;;5070302;28;20055;-74
2023/02/23 13:59:08;;;;;;;21.85;5.72;;;12.80;64.80;;;;;;5070528;28;20131;-74
2023/02/23 14:01:43;;;;;;;14.68;5.93;;;12.70;64.70;;;;;;5052315;28;20040;-74
2023/02/23 14:04:34;;;;;;;16.63;4.93;;;12.60;65.20;;;;;;5050888;28;20116;-74
2023/02/23 14:07:02;;;;;;;13.38;5.35;;;12.50;66.50;;;;;;5052144;28;20025;-75
2023/02/23 14:09:35;;;;;;;13.30;5.75;;;12.50;66.10;;;;;;5070128;28;20025;-74
2023/02/23 14:12:18;;;;;;;13.75;5.78;;;12.50;66.60;;;;;;5070047;28;20039;-74
2023/02/23 14:14:45;;;;;;;18.98;5.22;;;12.50;66.30;;;;;;5051780;28;20018;-74
2023/02/23 14:17:13;;;;;;;19.45;5.15;;;12.40;66.90;;;;;;5069980;28;20056;-72
2023/02/23 14:19:43;;;;;;;16.85;5.85;;;12.40;67.20;;;;;;5069812;28;20067;-74
2023/02/23 14:22:14;;;;;;;18.88;5.95;;;12.40;67.40;;;;;;5052001;28;20062;-74
2023/02/23 14:24:40;;;;;;;13.43;5.30;;;12.30;68.00;;;;;;5069673;28;20806;-75
2023/02/23 14:27:19;;;;;;;;;;;12.20;68.40;;;;;;5070048;28;20024;-74
2023/02/23 14:30:07;;;;;;;19.65;8.77;;;12.10;67.90;;;;;;5069777;28;19908;-74
2023/02/23 14:32:41;;;;;;;19.15;5.97;;;11.90;68.60;;;;;;5069708;28;20090;-74
2023/02/23 14:35:33;;;;;;;15.68;6.00;;;11.70;69.60;;;;;;5069666;28;20032;-74
2023/02/23 14:38:08;;;;;;;19.02;7.45;;;11.50;70.70;;;;;;5051530;28;20153;-74
2023/02/23 14:40:41;;;;;;;19.85;8.98;;;11.40;71.50;;;;;;5069374;28;20485;-75
2023/02/23 14:43:29;;;;;;;41.38;17.48;;;11.30;72.40;;;;;;5051489;28;20190;-74